sensor_id;sensor_type;location;lat;lon;timestamp;P1;durP1;ratioP1;P2;durP2;ratioP2
22007;SDS011;11168;56.976;24.168;2022-07-23T00:01:49;9.82;;;7.47;;
22007;SDS011;11168;56.976;24.168;2022-07-23T00:04:16;8.68;;;6.82;;
22007;SDS011;11168;56.976;24.168;2022-07-23T00:06:43;9.25;;;7.63;;
22007;SDS011;11168;56.976;24.168;2022-07-23T00:09:11;10.43;;;7.30;;
22007;SDS011;11168;56.976;24.168;2022-07-23T00:11:38;11.45;;;7.68;;
22007;SDS011;11168;56.976;24.168;2022-07-23T00:14:05;11.15;;;7.72;;
22007;SDS011;11168;56.976;24.168;2022-07-23T00:16:33;9.13;;;6.95;;
22007;SDS011;11168;56.976;24.168;2022-07-23T00:19:00;10.15;;;7.43;;
22007;SDS011;11168;56.976;24.168;2022-07-23T00:21:29;8.65;;;7.53;;
22007;SDS011;11168;56.976;24.168;2022-07-23T00:23:56;8.55;;;7.65;;
22007;SDS011;11168;56.976;24.168;2022-07-23T00:26:24;11.20;;;7.90;;
22007;SDS011;11168;56.976;24.168;2022-07-23T00:28:51;11.60;;;7.50;;
22007;SDS011;11168;56.976;24.168;2022-07-23T00:31:19;11.45;;;8.07;;
22007;SDS011;11168;56.976;24.168;2022-07-23T00:33:46;9.70;;;7.82;;
22007;SDS011;11168;56.976;24.168;2022-07-23T00:36:14;9.60;;;7.50;;
22007;SDS011;11168;56.976;24.168;2022-07-23T00:38:41;9.20;;;7.75;;
22007;SDS011;11168;56.976;24.168;2022-07-23T00:41:08;10.30;;;7.63;;
22007;SDS011;11168;56.976;24.168;2022-07-23T00:43:36;12.60;;;7.47;;
22007;SDS011;11168;56.976;24.168;2022-07-23T00:46:03;9.13;;;8.10;;
22007;SDS011;11168;56.976;24.168;2022-07-23T00:48:30;8.30;;;7.22;;
22007;SDS011;11168;56.976;24.168;2022-07-23T00:50:58;10.90;;;7.45;;
22007;SDS011;11168;56.976;24.168;2022-07-23T00:53:25;9.45;;;7.28;;
22007;SDS011;11168;56.976;24.168;2022-07-23T00:55:53;12.02;;;8.30;;
22007;SDS011;11168;56.976;24.168;2022-07-23T00:58:20;11.73;;;7.88;;
22007;SDS011;11168;56.976;24.168;2022-07-23T01:00:48;9.10;;;7.45;;
22007;SDS011;11168;56.976;24.168;2022-07-23T01:03:15;10.32;;;7.90;;
22007;SDS011;11168;56.976;24.168;2022-07-23T01:05:43;12.70;;;7.50;;
22007;SDS011;11168;56.976;24.168;2022-07-23T01:08:11;10.38;;;8.45;;
22007;SDS011;11168;56.976;24.168;2022-07-23T01:10:39;11.00;;;8.50;;
22007;SDS011;11168;56.976;24.168;2022-07-23T01:13:08;9.60;;;8.20;;
22007;SDS011;11168;56.976;24.168;2022-07-23T01:15:37;9.02;;;7.82;;
22007;SDS011;11168;56.976;24.168;2022-07-23T01:18:05;12.25;;;7.82;;
22007;SDS011;11168;56.976;24.168;2022-07-23T01:20:35;10.57;;;8.02;;
22007;SDS011;11168;56.976;24.168;2022-07-23T01:23:02;12.55;;;8.35;;
22007;SDS011;11168;56.976;24.168;2022-07-23T01:25:30;9.18;;;8.30;;
22007;SDS011;11168;56.976;24.168;2022-07-23T01:27:57;11.07;;;8.50;;
22007;SDS011;11168;56.976;24.168;2022-07-23T01:30:24;9.52;;;8.52;;
22007;SDS011;11168;56.976;24.168;2022-07-23T01:32:52;12.25;;;8.90;;
22007;SDS011;11168;56.976;24.168;2022-07-23T01:35:19;14.85;;;10.02;;
22007;SDS011;11168;56.976;24.168;2022-07-23T01:37:46;11.63;;;9.50;;
22007;SDS011;11168;56.976;24.168;2022-07-23T01:40:14;11.65;;;9.85;;
22007;SDS011;11168;56.976;24.168;2022-07-23T01:42:43;15.43;;;9.30;;
22007;SDS011;11168;56.976;24.168;2022-07-23T01:45:11;10.10;;;8.88;;
22007;SDS011;11168;56.976;24.168;2022-07-23T01:47:38;11.43;;;9.05;;
22007;SDS011;11168;56.976;24.168;2022-07-23T01:50:06;11.73;;;9.13;;
22007;SDS011;11168;56.976;24.168;2022-07-23T01:52:33;12.40;;;9.00;;
22007;SDS011;11168;56.976;24.168;2022-07-23T01:55:01;12.15;;;9.15;;
22007;SDS011;11168;56.976;24.168;2022-07-23T01:57:28;12.25;;;9.85;;
22007;SDS011;11168;56.976;24.168;2022-07-23T01:59:56;16.15;;;9.07;;
22007;SDS011;11168;56.976;24.168;2022-07-23T02:02:23;14.63;;;9.00;;
22007;SDS011;11168;56.976;24.168;2022-07-23T02:04:51;14.35;;;9.07;;
22007;SDS011;11168;56.976;24.168;2022-07-23T02:07:18;13.68;;;8.88;;
22007;SDS011;11168;56.976;24.168;2022-07-23T02:09:45;11.73;;;8.23;;
22007;SDS011;11168;56.976;24.168;2022-07-23T02:12:13;11.60;;;8.57;;
22007;SDS011;11168;56.976;24.168;2022-07-23T02:14:41;13.30;;;9.13;;
22007;SDS011;11168;56.976;24.168;2022-07-23T02:17:09;12.40;;;8.68;;
22007;SDS011;11168;56.976;24.168;2022-07-23T02:19:36;11.45;;;8.48;;
22007;SDS011;11168;56.976;24.168;2022-07-23T02:22:04;10.38;;;8.10;;
22007;SDS011;11168;56.976;24.168;2022-07-23T02:24:31;11.00;;;8.48;;
22007;SDS011;11168;56.976;24.168;2022-07-23T02:26:58;10.27;;;8.90;;
22007;SDS011;11168;56.976;24.168;2022-07-23T02:29:26;10.02;;;8.13;;
22007;SDS011;11168;56.976;24.168;2022-07-23T02:31:53;13.73;;;7.93;;
22007;SDS011;11168;56.976;24.168;2022-07-23T02:34:20;10.55;;;7.93;;
22007;SDS011;11168;56.976;24.168;2022-07-23T02:36:48;9.32;;;7.63;;
22007;SDS011;11168;56.976;24.168;2022-07-23T02:39:15;10.80;;;8.00;;
22007;SDS011;11168;56.976;24.168;2022-07-23T02:41:42;10.10;;;7.07;;
22007;SDS011;11168;56.976;24.168;2022-07-23T02:44:10;10.27;;;7.53;;
22007;SDS011;11168;56.976;24.168;2022-07-23T02:46:37;11.90;;;7.32;;
22007;SDS011;11168;56.976;24.168;2022-07-23T02:49:05;7.60;;;6.00;;
22007;SDS011;11168;56.976;24.168;2022-07-23T02:51:32;7.95;;;6.35;;
22007;SDS011;11168;56.976;24.168;2022-07-23T02:54:00;7.30;;;6.30;;
22007;SDS011;11168;56.976;24.168;2022-07-23T02:56:27;8.82;;;6.72;;
22007;SDS011;11168;56.976;24.168;2022-07-23T02:58:54;8.57;;;6.40;;
22007;SDS011;11168;56.976;24.168;2022-07-23T03:01:22;7.28;;;6.53;;
22007;SDS011;11168;56.976;24.168;2022-07-23T03:03:49;10.75;;;6.57;;
22007;SDS011;11168;56.976;24.168;2022-07-23T03:06:17;9.80;;;6.40;;
22007;SDS011;11168;56.976;24.168;2022-07-23T03:08:44;8.88;;;6.63;;
22007;SDS011;11168;56.976;24.168;2022-07-23T03:11:12;9.70;;;6.95;;
22007;SDS011;11168;56.976;24.168;2022-07-23T03:13:42;8.50;;;6.40;;
22007;SDS011;11168;56.976;24.168;2022-07-23T03:16:09;7.60;;;6.28;;
22007;SDS011;11168;56.976;24.168;2022-07-23T03:18:37;8.15;;;6.85;;
22007;SDS011;11168;56.976;24.168;2022-07-23T03:21:06;7.15;;;6.45;;
22007;SDS011;11168;56.976;24.168;2022-07-23T03:23:34;9.90;;;7.20;;
22007;SDS011;11168;56.976;24.168;2022-07-23T03:26:01;8.40;;;6.97;;
22007;SDS011;11168;56.976;24.168;2022-07-23T03:28:28;11.15;;;7.43;;
22007;SDS011;11168;56.976;24.168;2022-07-23T03:30:56;8.50;;;7.00;;
22007;SDS011;11168;56.976;24.168;2022-07-23T03:33:23;13.45;;;8.15;;
22007;SDS011;11168;56.976;24.168;2022-07-23T03:35:50;13.55;;;7.97;;
22007;SDS011;11168;56.976;24.168;2022-07-23T03:38:18;12.88;;;8.60;;
22007;SDS011;11168;56.976;24.168;2022-07-23T03:40:45;10.13;;;8.43;;
22007;SDS011;11168;56.976;24.168;2022-07-23T03:43:13;10.07;;;8.52;;
22007;SDS011;11168;56.976;24.168;2022-07-23T03:45:40;9.93;;;8.00;;
22007;SDS011;11168;56.976;24.168;2022-07-23T03:48:07;9.55;;;8.00;;
22007;SDS011;11168;56.976;24.168;2022-07-23T03:50:35;10.00;;;7.93;;
22007;SDS011;11168;56.976;24.168;2022-07-23T03:53:03;9.85;;;8.27;;
22007;SDS011;11168;56.976;24.168;2022-07-23T03:55:31;10.70;;;8.77;;
22007;SDS011;11168;56.976;24.168;2022-07-23T03:57:58;12.02;;;9.43;;
22007;SDS011;11168;56.976;24.168;2022-07-23T04:00:25;13.00;;;10.65;;
22007;SDS011;11168;56.976;24.168;2022-07-23T04:02:53;11.65;;;10.27;;
22007;SDS011;11168;56.976;24.168;2022-07-23T04:05:20;11.60;;;10.07;;
22007;SDS011;11168;56.976;24.168;2022-07-23T04:07:47;16.88;;;10.65;;
22007;SDS011;11168;56.976;24.168;2022-07-23T04:10:15;13.77;;;10.40;;
22007;SDS011;11168;56.976;24.168;2022-07-23T04:12:42;13.65;;;11.13;;
22007;SDS011;11168;56.976;24.168;2022-07-23T04:15:09;13.43;;;10.18;;
22007;SDS011;11168;56.976;24.168;2022-07-23T04:17:37;14.85;;;10.68;;
22007;SDS011;11168;56.976;24.168;2022-07-23T04:20:04;12.48;;;10.10;;
22007;SDS011;11168;56.976;24.168;2022-07-23T04:22:32;17.08;;;10.68;;
22007;SDS011;11168;56.976;24.168;2022-07-23T04:24:59;13.40;;;10.82;;
22007;SDS011;11168;56.976;24.168;2022-07-23T04:27:27;15.23;;;10.00;;
22007;SDS011;11168;56.976;24.168;2022-07-23T04:29:54;14.23;;;10.45;;
22007;SDS011;11168;56.976;24.168;2022-07-23T04:32:22;12.88;;;10.52;;
22007;SDS011;11168;56.976;24.168;2022-07-23T04:34:49;14.20;;;10.52;;
22007;SDS011;11168;56.976;24.168;2022-07-23T04:37:16;15.25;;;11.27;;
22007;SDS011;11168;56.976;24.168;2022-07-23T04:39:43;15.57;;;11.10;;
22007;SDS011;11168;56.976;24.168;2022-07-23T04:42:11;15.82;;;11.48;;
22007;SDS011;11168;56.976;24.168;2022-07-23T04:44:38;15.57;;;11.55;;
22007;SDS011;11168;56.976;24.168;2022-07-23T04:47:05;13.93;;;11.68;;
22007;SDS011;11168;56.976;24.168;2022-07-23T04:49:33;14.13;;;11.43;;
22007;SDS011;11168;56.976;24.168;2022-07-23T04:52:00;17.40;;;11.73;;
22007;SDS011;11168;56.976;24.168;2022-07-23T04:54:27;13.52;;;10.45;;
22007;SDS011;11168;56.976;24.168;2022-07-23T04:56:55;13.85;;;11.43;;
22007;SDS011;11168;56.976;24.168;2022-07-23T04:59:22;16.00;;;11.10;;
22007;SDS011;11168;56.976;24.168;2022-07-23T05:01:49;13.93;;;10.70;;
22007;SDS011;11168;56.976;24.168;2022-07-23T05:04:17;12.65;;;10.88;;
22007;SDS011;11168;56.976;24.168;2022-07-23T05:06:44;12.80;;;10.73;;
22007;SDS011;11168;56.976;24.168;2022-07-23T05:09:11;11.93;;;10.73;;
22007;SDS011;11168;56.976;24.168;2022-07-23T05:11:39;14.95;;;10.35;;
22007;SDS011;11168;56.976;24.168;2022-07-23T05:14:06;12.38;;;10.82;;
22007;SDS011;11168;56.976;24.168;2022-07-23T05:16:33;14.98;;;11.10;;
22007;SDS011;11168;56.976;24.168;2022-07-23T05:19:01;13.05;;;10.38;;
22007;SDS011;11168;56.976;24.168;2022-07-23T05:21:29;12.55;;;10.82;;
22007;SDS011;11168;56.976;24.168;2022-07-23T05:23:56;13.00;;;10.65;;
22007;SDS011;11168;56.976;24.168;2022-07-23T05:26:24;13.38;;;10.20;;
22007;SDS011;11168;56.976;24.168;2022-07-23T05:28:51;12.45;;;10.48;;
22007;SDS011;11168;56.976;24.168;2022-07-23T05:31:18;12.57;;;9.43;;
22007;SDS011;11168;56.976;24.168;2022-07-23T05:33:46;11.07;;;9.82;;
22007;SDS011;11168;56.976;24.168;2022-07-23T05:36:13;11.80;;;10.02;;
22007;SDS011;11168;56.976;24.168;2022-07-23T05:38:41;11.65;;;9.40;;
22007;SDS011;11168;56.976;24.168;2022-07-23T05:41:08;12.30;;;9.80;;
22007;SDS011;11168;56.976;24.168;2022-07-23T05:43:35;14.38;;;9.68;;
22007;SDS011;11168;56.976;24.168;2022-07-23T05:46:03;11.55;;;9.55;;
22007;SDS011;11168;56.976;24.168;2022-07-23T05:48:30;12.88;;;9.68;;
22007;SDS011;11168;56.976;24.168;2022-07-23T05:50:58;10.43;;;9.32;;
22007;SDS011;11168;56.976;24.168;2022-07-23T05:53:25;14.25;;;10.00;;
22007;SDS011;11168;56.976;24.168;2022-07-23T05:55:53;11.60;;;9.77;;
22007;SDS011;11168;56.976;24.168;2022-07-23T05:58:20;12.07;;;10.10;;
22007;SDS011;11168;56.976;24.168;2022-07-23T06:00:47;13.48;;;10.23;;
22007;SDS011;11168;56.976;24.168;2022-07-23T06:03:15;14.70;;;10.13;;
22007;SDS011;11168;56.976;24.168;2022-07-23T06:05:43;12.40;;;10.48;;
22007;SDS011;11168;56.976;24.168;2022-07-23T06:08:10;12.90;;;10.38;;
22007;SDS011;11168;56.976;24.168;2022-07-23T06:10:37;15.32;;;10.45;;
22007;SDS011;11168;56.976;24.168;2022-07-23T06:13:05;11.32;;;10.07;;
22007;SDS011;11168;56.976;24.168;2022-07-23T06:15:32;13.07;;;10.10;;
22007;SDS011;11168;56.976;24.168;2022-07-23T06:18:00;15.27;;;10.60;;
22007;SDS011;11168;56.976;24.168;2022-07-23T06:20:27;13.50;;;10.25;;
22007;SDS011;11168;56.976;24.168;2022-07-23T06:22:54;11.35;;;10.10;;
22007;SDS011;11168;56.976;24.168;2022-07-23T06:25:22;14.85;;;10.88;;
22007;SDS011;11168;56.976;24.168;2022-07-23T06:27:49;13.25;;;10.52;;
22007;SDS011;11168;56.976;24.168;2022-07-23T06:30:16;13.85;;;9.95;;
22007;SDS011;11168;56.976;24.168;2022-07-23T06:32:46;12.90;;;10.07;;
22007;SDS011;11168;56.976;24.168;2022-07-23T06:35:14;16.85;;;9.55;;
22007;SDS011;11168;56.976;24.168;2022-07-23T06:37:41;12.80;;;9.68;;
22007;SDS011;11168;56.976;24.168;2022-07-23T06:40:10;12.00;;;8.75;;
22007;SDS011;11168;56.976;24.168;2022-07-23T06:42:39;10.93;;;8.43;;
22007;SDS011;11168;56.976;24.168;2022-07-23T06:45:06;9.38;;;8.30;;
22007;SDS011;11168;56.976;24.168;2022-07-23T06:47:34;9.45;;;7.97;;
22007;SDS011;11168;56.976;24.168;2022-07-23T06:50:01;9.48;;;8.48;;
22007;SDS011;11168;56.976;24.168;2022-07-23T06:52:29;12.77;;;8.93;;
22007;SDS011;11168;56.976;24.168;2022-07-23T06:54:56;13.90;;;8.60;;
22007;SDS011;11168;56.976;24.168;2022-07-23T06:57:23;11.32;;;8.20;;
22007;SDS011;11168;56.976;24.168;2022-07-23T06:59:52;9.77;;;8.20;;
22007;SDS011;11168;56.976;24.168;2022-07-23T07:02:21;10.07;;;8.20;;
22007;SDS011;11168;56.976;24.168;2022-07-23T07:04:49;9.73;;;8.73;;
22007;SDS011;11168;56.976;24.168;2022-07-23T07:07:16;8.73;;;7.70;;
22007;SDS011;11168;56.976;24.168;2022-07-23T07:09:43;9.50;;;8.52;;
22007;SDS011;11168;56.976;24.168;2022-07-23T07:12:13;10.30;;;9.15;;
22007;SDS011;11168;56.976;24.168;2022-07-23T07:14:41;8.35;;;7.03;;
22007;SDS011;11168;56.976;24.168;2022-07-23T07:17:08;14.38;;;7.55;;
22007;SDS011;11168;56.976;24.168;2022-07-23T07:19:37;7.53;;;6.70;;
22007;SDS011;11168;56.976;24.168;2022-07-23T07:22:04;8.10;;;7.30;;
22007;SDS011;11168;56.976;24.168;2022-07-23T07:24:31;9.07;;;7.78;;
22007;SDS011;11168;56.976;24.168;2022-07-23T07:27:03;8.32;;;7.38;;
22007;SDS011;11168;56.976;24.168;2022-07-23T07:29:31;13.43;;;8.07;;
22007;SDS011;11168;56.976;24.168;2022-07-23T07:31:58;9.38;;;8.35;;
22007;SDS011;11168;56.976;24.168;2022-07-23T07:34:25;9.52;;;7.75;;
22007;SDS011;11168;56.976;24.168;2022-07-23T07:36:53;9.07;;;8.05;;
22007;SDS011;11168;56.976;24.168;2022-07-23T07:39:20;10.82;;;7.35;;
22007;SDS011;11168;56.976;24.168;2022-07-23T07:41:48;10.90;;;8.02;;
22007;SDS011;11168;56.976;24.168;2022-07-23T07:44:15;9.27;;;8.32;;
22007;SDS011;11168;56.976;24.168;2022-07-23T07:46:42;12.60;;;8.20;;
22007;SDS011;11168;56.976;24.168;2022-07-23T07:49:10;9.02;;;8.07;;
22007;SDS011;11168;56.976;24.168;2022-07-23T07:51:41;9.18;;;8.27;;
22007;SDS011;11168;56.976;24.168;2022-07-23T07:54:11;8.73;;;7.80;;
22007;SDS011;11168;56.976;24.168;2022-07-23T07:56:38;12.27;;;8.57;;
22007;SDS011;11168;56.976;24.168;2022-07-23T07:59:07;15.52;;;10.05;;
22007;SDS011;11168;56.976;24.168;2022-07-23T08:01:36;14.10;;;10.30;;
22007;SDS011;11168;56.976;24.168;2022-07-23T08:04:03;12.75;;;11.32;;
22007;SDS011;11168;56.976;24.168;2022-07-23T08:06:31;15.48;;;12.45;;
22007;SDS011;11168;56.976;24.168;2022-07-23T08:09:00;16.63;;;11.50;;
22007;SDS011;11168;56.976;24.168;2022-07-23T08:11:27;21.35;;;12.63;;
22007;SDS011;11168;56.976;24.168;2022-07-23T08:13:55;15.88;;;14.15;;
22007;SDS011;11168;56.976;24.168;2022-07-23T08:16:22;18.25;;;14.43;;
22007;SDS011;11168;56.976;24.168;2022-07-23T08:18:50;15.27;;;12.65;;
22007;SDS011;11168;56.976;24.168;2022-07-23T08:21:17;13.57;;;11.43;;
22007;SDS011;11168;56.976;24.168;2022-07-23T08:23:44;12.98;;;11.32;;
22007;SDS011;11168;56.976;24.168;2022-07-23T08:26:12;14.80;;;12.20;;
22007;SDS011;11168;56.976;24.168;2022-07-23T08:28:39;12.70;;;11.02;;
22007;SDS011;11168;56.976;24.168;2022-07-23T08:31:07;16.42;;;12.98;;
22007;SDS011;11168;56.976;24.168;2022-07-23T08:33:34;15.98;;;12.68;;
22007;SDS011;11168;56.976;24.168;2022-07-23T08:36:02;15.55;;;12.10;;
22007;SDS011;11168;56.976;24.168;2022-07-23T08:38:31;15.70;;;12.93;;
22007;SDS011;11168;56.976;24.168;2022-07-23T08:40:58;17.45;;;14.00;;
22007;SDS011;11168;56.976;24.168;2022-07-23T08:43:27;15.63;;;13.23;;
22007;SDS011;11168;56.976;24.168;2022-07-23T08:45:55;17.13;;;13.38;;
22007;SDS011;11168;56.976;24.168;2022-07-23T08:48:28;14.90;;;12.27;;
22007;SDS011;11168;56.976;24.168;2022-07-23T08:50:57;15.05;;;13.23;;
22007;SDS011;11168;56.976;24.168;2022-07-23T08:53:25;15.38;;;13.50;;
22007;SDS011;11168;56.976;24.168;2022-07-23T08:55:54;16.50;;;13.52;;
22007;SDS011;11168;56.976;24.168;2022-07-23T08:58:22;16.05;;;14.35;;
22007;SDS011;11168;56.976;24.168;2022-07-23T09:00:53;16.20;;;14.52;;
22007;SDS011;11168;56.976;24.168;2022-07-23T09:03:25;18.45;;;15.50;;
22007;SDS011;11168;56.976;24.168;2022-07-23T09:05:53;18.27;;;15.18;;
22007;SDS011;11168;56.976;24.168;2022-07-23T09:08:25;21.02;;;15.65;;
22007;SDS011;11168;56.976;24.168;2022-07-23T09:11:01;17.60;;;14.38;;
22007;SDS011;11168;56.976;24.168;2022-07-23T09:13:39;18.73;;;13.82;;
22007;SDS011;11168;56.976;24.168;2022-07-23T09:16:10;16.83;;;14.13;;
22007;SDS011;11168;56.976;24.168;2022-07-23T09:21:14;15.00;;;13.02;;
22007;SDS011;11168;56.976;24.168;2022-07-23T09:26:29;17.52;;;14.73;;
22007;SDS011;11168;56.976;24.168;2022-07-23T09:31:31;20.30;;;15.27;;
22007;SDS011;11168;56.976;24.168;2022-07-23T09:34:10;18.02;;;14.88;;
22007;SDS011;11168;56.976;24.168;2022-07-23T09:36:38;16.50;;;13.93;;
22007;SDS011;11168;56.976;24.168;2022-07-23T09:39:06;15.55;;;13.05;;
22007;SDS011;11168;56.976;24.168;2022-07-23T09:41:34;14.75;;;11.65;;
22007;SDS011;11168;56.976;24.168;2022-07-23T09:44:09;8.88;;;7.93;;
22007;SDS011;11168;56.976;24.168;2022-07-23T09:46:36;10.35;;;6.15;;
22007;SDS011;11168;56.976;24.168;2022-07-23T09:49:10;9.88;;;5.80;;
22007;SDS011;11168;56.976;24.168;2022-07-23T09:51:48;6.97;;;5.10;;
22007;SDS011;11168;56.976;24.168;2022-07-23T09:54:23;6.95;;;5.28;;
22007;SDS011;11168;56.976;24.168;2022-07-23T09:56:52;12.45;;;5.93;;
22007;SDS011;11168;56.976;24.168;2022-07-23T09:59:27;8.07;;;6.05;;
22007;SDS011;11168;56.976;24.168;2022-07-23T10:01:56;9.20;;;6.35;;
22007;SDS011;11168;56.976;24.168;2022-07-23T10:04:29;9.85;;;7.32;;
22007;SDS011;11168;56.976;24.168;2022-07-23T10:07:00;9.82;;;7.35;;
22007;SDS011;11168;56.976;24.168;2022-07-23T10:09:28;11.88;;;7.78;;
22007;SDS011;11168;56.976;24.168;2022-07-23T10:11:58;11.95;;;7.90;;
22007;SDS011;11168;56.976;24.168;2022-07-23T10:14:48;9.88;;;7.60;;
22007;SDS011;11168;56.976;24.168;2022-07-23T10:17:15;9.35;;;7.82;;
22007;SDS011;11168;56.976;24.168;2022-07-23T10:19:43;12.00;;;7.78;;
22007;SDS011;11168;56.976;24.168;2022-07-23T10:22:18;9.90;;;7.95;;
22007;SDS011;11168;56.976;24.168;2022-07-23T10:24:52;9.65;;;8.25;;
22007;SDS011;11168;56.976;24.168;2022-07-23T10:27:26;13.10;;;7.53;;
22007;SDS011;11168;56.976;24.168;2022-07-23T10:30:05;8.68;;;7.32;;
22007;SDS011;11168;56.976;24.168;2022-07-23T10:40:25;8.70;;;6.75;;
22007;SDS011;11168;56.976;24.168;2022-07-23T10:42:52;10.23;;;7.15;;
22007;SDS011;11168;56.976;24.168;2022-07-23T10:47:50;8.85;;;6.43;;
22007;SDS011;11168;56.976;24.168;2022-07-23T10:57:53;6.40;;;3.90;;
22007;SDS011;11168;56.976;24.168;2022-07-23T11:02:50;6.03;;;3.13;;
22007;SDS011;11168;56.976;24.168;2022-07-23T11:05:22;6.15;;;4.15;;
22007;SDS011;11168;56.976;24.168;2022-07-23T11:10:43;7.45;;;4.80;;
22007;SDS011;11168;56.976;24.168;2022-07-23T11:13:30;5.63;;;4.28;;
22007;SDS011;11168;56.976;24.168;2022-07-23T11:31:57;6.05;;;2.40;;
22007;SDS011;11168;56.976;24.168;2022-07-23T11:34:34;11.30;;;2.83;;
22007;SDS011;11168;56.976;24.168;2022-07-23T11:37:03;7.07;;;2.45;;
22007;SDS011;11168;56.976;24.168;2022-07-23T11:39:31;6.72;;;2.30;;
22007;SDS011;11168;56.976;24.168;2022-07-23T11:42:00;8.30;;;2.53;;
22007;SDS011;11168;56.976;24.168;2022-07-23T11:44:29;12.68;;;3.00;;
22007;SDS011;11168;56.976;24.168;2022-07-23T11:47:00;7.35;;;2.75;;
22007;SDS011;11168;56.976;24.168;2022-07-23T11:49:30;10.10;;;2.47;;
22007;SDS011;11168;56.976;24.168;2022-07-23T11:52:13;7.53;;;2.60;;
22007;SDS011;11168;56.976;24.168;2022-07-23T11:57:14;5.00;;;2.20;;
22007;SDS011;11168;56.976;24.168;2022-07-23T11:59:42;4.53;;;2.10;;
22007;SDS011;11168;56.976;24.168;2022-07-23T12:02:10;6.35;;;2.88;;
22007;SDS011;11168;56.976;24.168;2022-07-23T12:04:38;8.35;;;2.72;;
22007;SDS011;11168;56.976;24.168;2022-07-23T12:09:52;7.15;;;2.47;;
22007;SDS011;11168;56.976;24.168;2022-07-23T12:12:20;11.35;;;2.97;;
22007;SDS011;11168;56.976;24.168;2022-07-23T12:17:18;7.55;;;2.47;;
22007;SDS011;11168;56.976;24.168;2022-07-23T12:19:46;6.53;;;2.05;;
22007;SDS011;11168;56.976;24.168;2022-07-23T12:22:14;7.30;;;2.63;;
22007;SDS011;11168;56.976;24.168;2022-07-23T12:25:01;7.60;;;2.38;;
22007;SDS011;11168;56.976;24.168;2022-07-23T12:27:30;7.25;;;2.60;;
22007;SDS011;11168;56.976;24.168;2022-07-23T12:29:58;6.15;;;2.15;;
22007;SDS011;11168;56.976;24.168;2022-07-23T12:32:27;6.13;;;2.40;;
22007;SDS011;11168;56.976;24.168;2022-07-23T12:35:12;9.63;;;2.50;;
22007;SDS011;11168;56.976;24.168;2022-07-23T12:37:41;9.48;;;2.60;;
22007;SDS011;11168;56.976;24.168;2022-07-23T12:40:20;5.05;;;2.20;;
22007;SDS011;11168;56.976;24.168;2022-07-23T12:42:49;7.90;;;2.45;;
22007;SDS011;11168;56.976;24.168;2022-07-23T12:45:17;8.13;;;2.50;;
22007;SDS011;11168;56.976;24.168;2022-07-23T12:50:52;7.75;;;2.67;;
22007;SDS011;11168;56.976;24.168;2022-07-23T12:56:10;7.20;;;2.97;;
22007;SDS011;11168;56.976;24.168;2022-07-23T12:58:51;5.15;;;2.90;;
22007;SDS011;11168;56.976;24.168;2022-07-23T13:06:46;7.70;;;2.92;;
22007;SDS011;11168;56.976;24.168;2022-07-23T13:09:19;5.38;;;2.75;;
22007;SDS011;11168;56.976;24.168;2022-07-23T13:11:46;6.50;;;3.03;;
22007;SDS011;11168;56.976;24.168;2022-07-23T13:14:14;5.43;;;3.03;;
22007;SDS011;11168;56.976;24.168;2022-07-23T13:16:42;5.93;;;3.15;;
22007;SDS011;11168;56.976;24.168;2022-07-23T13:19:11;9.88;;;3.88;;
22007;SDS011;11168;56.976;24.168;2022-07-23T13:21:40;9.35;;;3.75;;
22007;SDS011;11168;56.976;24.168;2022-07-23T13:24:08;7.53;;;3.40;;
22007;SDS011;11168;56.976;24.168;2022-07-23T13:26:36;9.27;;;3.30;;
22007;SDS011;11168;56.976;24.168;2022-07-23T13:29:06;6.03;;;3.45;;
22007;SDS011;11168;56.976;24.168;2022-07-23T13:31:36;10.10;;;3.58;;
22007;SDS011;11168;56.976;24.168;2022-07-23T13:34:04;6.95;;;3.28;;
22007;SDS011;11168;56.976;24.168;2022-07-23T13:36:33;5.00;;;2.95;;
22007;SDS011;11168;56.976;24.168;2022-07-23T13:39:01;6.13;;;3.40;;
22007;SDS011;11168;56.976;24.168;2022-07-23T13:41:30;7.85;;;3.00;;
22007;SDS011;11168;56.976;24.168;2022-07-23T13:43:58;10.93;;;2.90;;
22007;SDS011;11168;56.976;24.168;2022-07-23T13:46:26;5.32;;;2.55;;
22007;SDS011;11168;56.976;24.168;2022-07-23T13:48:53;6.13;;;2.72;;
22007;SDS011;11168;56.976;24.168;2022-07-23T13:51:21;8.23;;;3.03;;
22007;SDS011;11168;56.976;24.168;2022-07-23T13:53:51;8.30;;;3.10;;
22007;SDS011;11168;56.976;24.168;2022-07-23T13:56:18;9.88;;;2.60;;
22007;SDS011;11168;56.976;24.168;2022-07-23T13:58:46;6.47;;;2.83;;
22007;SDS011;11168;56.976;24.168;2022-07-23T14:01:14;6.78;;;2.70;;
22007;SDS011;11168;56.976;24.168;2022-07-23T14:03:43;7.72;;;2.97;;
22007;SDS011;11168;56.976;24.168;2022-07-23T14:06:11;5.25;;;2.45;;
22007;SDS011;11168;56.976;24.168;2022-07-23T14:08:42;6.78;;;2.38;;
22007;SDS011;11168;56.976;24.168;2022-07-23T14:11:10;5.85;;;2.47;;
22007;SDS011;11168;56.976;24.168;2022-07-23T14:13:37;6.72;;;2.63;;
22007;SDS011;11168;56.976;24.168;2022-07-23T14:16:06;9.68;;;2.80;;
22007;SDS011;11168;56.976;24.168;2022-07-23T14:18:33;6.22;;;2.58;;
22007;SDS011;11168;56.976;24.168;2022-07-23T14:21:01;6.90;;;2.63;;
22007;SDS011;11168;56.976;24.168;2022-07-23T14:23:29;6.03;;;2.60;;
22007;SDS011;11168;56.976;24.168;2022-07-23T14:25:57;5.55;;;2.28;;
22007;SDS011;11168;56.976;24.168;2022-07-23T14:28:24;8.20;;;2.65;;
22007;SDS011;11168;56.976;24.168;2022-07-23T14:30:51;8.73;;;2.20;;
22007;SDS011;11168;56.976;24.168;2022-07-23T14:33:19;6.65;;;2.40;;
22007;SDS011;11168;56.976;24.168;2022-07-23T14:35:47;6.10;;;2.60;;
22007;SDS011;11168;56.976;24.168;2022-07-23T14:38:14;5.93;;;2.40;;
22007;SDS011;11168;56.976;24.168;2022-07-23T14:40:42;7.80;;;2.92;;
22007;SDS011;11168;56.976;24.168;2022-07-23T14:43:10;4.20;;;2.47;;
22007;SDS011;11168;56.976;24.168;2022-07-23T14:45:38;6.35;;;2.35;;
22007;SDS011;11168;56.976;24.168;2022-07-23T14:48:06;8.10;;;2.60;;
22007;SDS011;11168;56.976;24.168;2022-07-23T14:50:33;6.28;;;2.33;;
22007;SDS011;11168;56.976;24.168;2022-07-23T14:53:01;6.30;;;2.67;;
22007;SDS011;11168;56.976;24.168;2022-07-23T14:55:30;6.45;;;2.67;;
22007;SDS011;11168;56.976;24.168;2022-07-23T14:57:58;8.15;;;2.35;;
22007;SDS011;11168;56.976;24.168;2022-07-23T15:00:26;7.10;;;2.60;;
22007;SDS011;11168;56.976;24.168;2022-07-23T15:02:55;9.68;;;2.50;;
22007;SDS011;11168;56.976;24.168;2022-07-23T15:05:23;10.57;;;2.58;;
22007;SDS011;11168;56.976;24.168;2022-07-23T15:07:52;9.85;;;2.55;;
22007;SDS011;11168;56.976;24.168;2022-07-23T15:10:19;7.60;;;2.42;;
22007;SDS011;11168;56.976;24.168;2022-07-23T15:12:48;7.60;;;2.20;;
22007;SDS011;11168;56.976;24.168;2022-07-23T15:15:16;5.05;;;2.50;;
22007;SDS011;11168;56.976;24.168;2022-07-23T15:17:44;4.90;;;2.20;;
22007;SDS011;11168;56.976;24.168;2022-07-23T15:20:11;6.60;;;2.25;;
22007;SDS011;11168;56.976;24.168;2022-07-23T15:22:43;7.22;;;2.58;;
22007;SDS011;11168;56.976;24.168;2022-07-23T15:25:11;5.45;;;2.40;;
22007;SDS011;11168;56.976;24.168;2022-07-23T15:27:40;4.90;;;2.15;;
22007;SDS011;11168;56.976;24.168;2022-07-23T15:30:08;6.85;;;2.00;;
22007;SDS011;11168;56.976;24.168;2022-07-23T15:32:36;5.72;;;2.10;;
22007;SDS011;11168;56.976;24.168;2022-07-23T15:35:03;10.02;;;2.30;;
22007;SDS011;11168;56.976;24.168;2022-07-23T15:37:31;5.95;;;1.98;;